Time;durP1;ratioP1;P1;durP2;ratioP2;P2;SDS_P1;SDS_P2;PMS_P1;PMS_P2;Temp;Humidity;BMP_temperature;BMP_pressure;BME280_temperature;BME280_humidity;BME280_pressure;Samples;Min_cycle;Max_cycle;Signal;HPM_P1;HPM_P2
2023/05/17 00:02:11;;;;;;;4.60;4.22;;;;;;;;;;4984114;28;20042;-77
2023/05/17 00:04:38;;;;;;;4.75;4.35;;;;;;;;;;4986931;28;20397;-77
2023/05/17 00:07:06;;;;;;;3.40;3.20;;;;;;;;;;4987296;28;20271;-77
2023/05/17 00:09:34;;;;;;;3.55;3.25;;;;;;;;;;4989566;28;20050;-78
2023/05/17 00:12:03;;;;;;;2.85;2.75;;;;;;;;;;4985033;28;20125;-79
2023/05/17 00:14:30;;;;;;;3.30;3.10;;;;;;;;;;4964539;28;20074;-77
2023/05/17 00:16:58;;;;;;;3.42;3.22;;;;;;;;;;4980799;28;20059;-77
2023/05/17 00:19:25;;;;;;;3.60;3.40;;;;;;;;;;4984025;28;20056;-79
2023/05/17 00:21:53;;;;;;;3.78;3.15;;;;;;;;;;4969914;28;20047;-76
2023/05/17 00:24:20;;;;;;;2.85;2.75;;;;;;;;;;4980903;28;20042;-78
2023/05/17 00:26:48;;;;;;;3.50;3.20;;;;;;;;;;4988260;28;20046;-78
2023/05/17 00:29:15;;;;;;;3.10;2.90;;;;;;;;;;4991096;28;20148;-77
2023/05/17 00:31:43;;;;;;;3.15;2.95;;;;;;;;;;4984316;28;20046;-77
2023/05/17 00:34:10;;;;;;;4.38;3.97;;;;;;;;;;4984746;28;20109;-77
2023/05/17 00:36:38;;;;;;;3.10;2.90;;;;;;;;;;4988408;28;20050;-78
2023/05/17 00:39:05;;;;;;;3.40;3.10;;;;;;;;;;4981283;28;20061;-77
2023/05/17 00:41:33;;;;;;;3.63;2.50;;;;;;;;;;4983364;28;20571;-78
2023/05/17 00:44:00;;;;;;;2.90;2.42;;;;;;;;;;4982268;28;20507;-78
2023/05/17 00:46:28;;;;;;;2.85;2.65;;;;;;;;;;4984965;28;20475;-79
2023/05/17 00:48:56;;;;;;;2.53;2.42;;;;;;;;;;4965854;28;20157;-78
2023/05/17 00:51:23;;;;;;;2.22;2.10;;;;;;;;;;4965494;28;20085;-80
2023/05/17 00:53:51;;;;;;;2.20;2.10;;;;;;;;;;4987814;28;20073;-78
2023/05/17 00:56:19;;;;;;;2.60;2.40;;;;;;;;;;4979508;28;20467;-78
2023/05/17 00:58:46;;;;;;;2.08;1.98;;;;;;;;;;4975904;28;20070;-79
2023/05/17 01:01:14;;;;;;;2.50;2.40;;;;;;;;;;4963843;28;20419;-79
2023/05/17 01:03:44;;;;;;;2.22;2.03;;;;;;;;;;4971968;28;20046;-78
2023/05/17 01:06:13;;;;;;;2.00;1.90;;;;;;;;;;4966841;28;20049;-79
2023/05/17 01:08:41;;;;;;;2.10;2.00;;;;;;;;;;4988719;28;20054;-79
2023/05/17 01:11:13;;;;;;;2.90;2.70;;;;;;;;;;4986616;28;20263;-78
2023/05/17 01:13:52;;;;;;;2.47;2.28;;;;;;;;;;4980449;28;20051;-78
2023/05/17 01:16:27;;;;;;;2.10;2.00;;;;;;;;;;4996998;28;20117;-77
2023/05/17 01:19:07;;;;;;;2.13;2.03;;;;;;;;;;4987133;28;20050;-79
2023/05/17 01:21:35;;;;;;;2.58;1.83;;;;;;;;;;4969401;28;20054;-78
2023/05/17 01:24:09;;;;;;;2.10;1.98;;;;;;;;;;4966240;28;20065;-78
2023/05/17 01:26:42;;;;;;;2.30;2.10;;;;;;;;;;4989465;28;20054;-78
2023/05/17 01:29:14;;;;;;;1.92;1.83;;;;;;;;;;4982664;28;20104;-79
2023/05/17 01:31:42;;;;;;;2.10;1.88;;;;;;;;;;4980826;28;20061;-78
2023/05/17 01:34:10;;;;;;;2.33;1.88;;;;;;;;;;4989512;28;20109;-78
2023/05/17 01:36:38;;;;;;;2.15;2.00;;;;;;;;;;4989085;28;20056;-78
2023/05/17 01:39:07;;;;;;;1.90;1.80;;;;;;;;;;4986271;28;20289;-78
2023/05/17 01:41:34;;;;;;;2.45;2.20;;;;;;;;;;4967088;28;20050;-78
2023/05/17 01:44:02;;;;;;;5.35;2.70;;;;;;;;;;4986180;28;20046;-78
2023/05/17 01:46:38;;;;;;;2.38;2.00;;;;;;;;;;4989283;28;20062;-79
2023/05/17 01:49:16;;;;;;;2.20;2.00;;;;;;;;;;4993620;28;20047;-78
2023/05/17 01:51:47;;;;;;;2.05;1.95;;;;;;;;;;4980394;28;20038;-78
2023/05/17 01:54:17;;;;;;;1.90;1.80;;;;;;;;;;4986454;28;20512;-77
2023/05/17 01:56:48;;;;;;;1.73;1.63;;;;;;;;;;4966544;28;20146;-78
2023/05/17 01:59:20;;;;;;;2.20;2.00;;;;;;;;;;4982670;28;20137;-78
2023/05/17 02:01:48;;;;;;;1.80;1.70;;;;;;;;;;4981005;28;20054;-78
2023/05/17 02:04:15;;;;;;;1.98;1.88;;;;;;;;;;4984104;28;20046;-78
2023/05/17 02:06:43;;;;;;;1.88;1.77;;;;;;;;;;4979821;28;20048;-78
2023/05/17 02:09:10;;;;;;;1.40;1.30;;;;;;;;;;4975515;28;20058;-78
2023/05/17 02:11:38;;;;;;;2.17;1.60;;;;;;;;;;4970545;28;20053;-78
2023/05/17 02:14:06;;;;;;;1.88;1.77;;;;;;;;;;5022933;23;20061;-75
2023/05/17 02:16:35;;;;;;;1.98;1.58;;;;;;;;;;5021770;28;20049;-75
2023/05/17 02:19:03;;;;;;;1.80;1.70;;;;;;;;;;5021275;28;20412;-75
2023/05/17 02:21:32;;;;;;;2.40;1.63;;;;;;;;;;5007876;28;20132;-75
2023/05/17 02:24:02;;;;;;;1.80;1.70;;;;;;;;;;5020711;28;20070;-75
2023/05/17 02:26:31;;;;;;;1.70;1.60;;;;;;;;;;5004792;28;20525;-75
2023/05/17 02:28:59;;;;;;;1.70;1.60;;;;;;;;;;5024564;28;20049;-75
2023/05/17 02:31:28;;;;;;;2.15;1.60;;;;;;;;;;5023181;28;20045;-75
2023/05/17 02:33:56;;;;;;;1.58;1.40;;;;;;;;;;5026156;28;20132;-75
2023/05/17 02:36:25;;;;;;;2.63;1.83;;;;;;;;;;5004036;28;20140;-75
2023/05/17 02:38:53;;;;;;;1.70;1.60;;;;;;;;;;5027410;28;20407;-75
2023/05/17 02:41:21;;;;;;;1.27;1.27;;;;;;;;;;5024893;28;20415;-75
2023/05/17 02:43:51;;;;;;;1.95;1.48;;;;;;;;;;5019878;28;20080;-75
2023/05/17 02:46:19;;;;;;;1.55;1.02;;;;;;;;;;5026807;28;20065;-75
2023/05/17 02:48:47;;;;;;;1.13;1.02;;;;;;;;;;5027556;28;20474;-75
2023/05/17 02:51:15;;;;;;;1.25;1.10;;;;;;;;;;5021746;28;20535;-75
2023/05/17 02:53:44;;;;;;;1.40;1.30;;;;;;;;;;5020838;28;20044;-75
2023/05/17 02:56:12;;;;;;;2.85;1.33;;;;;;;;;;5028789;28;20049;-75
2023/05/17 02:58:41;;;;;;;1.05;1.05;;;;;;;;;;5027248;28;20073;-75
2023/05/17 03:01:10;;;;;;;1.35;1.25;;;;;;;;;;5038589;28;20128;-75
2023/05/17 03:03:38;;;;;;;2.35;1.60;;;;;;;;;;5025410;28;20053;-75
2023/05/17 03:06:07;;;;;;;1.45;1.10;;;;;;;;;;5018678;28;20273;-75
2023/05/17 03:08:36;;;;;;;2.15;1.30;;;;;;;;;;5026353;28;20044;-75
2023/05/17 03:11:12;;;;;;;1.23;1.23;;;;;;;;;;5024270;28;20059;-75
2023/05/17 03:13:40;;;;;;;1.60;1.20;;;;;;;;;;5019284;28;20319;-75
2023/05/17 03:16:12;;;;;;;1.05;1.05;;;;;;;;;;4996953;28;20077;-75
2023/05/17 03:18:40;;;;;;;1.00;1.00;;;;;;;;;;5022392;28;20048;-75
2023/05/17 03:21:09;;;;;;;1.15;1.15;;;;;;;;;;5025988;28;20403;-75
2023/05/17 03:23:38;;;;;;;0.98;0.98;;;;;;;;;;5006676;28;20052;-75
2023/05/17 03:26:07;;;;;;;1.50;1.20;;;;;;;;;;5026481;28;20053;-75
2023/05/17 03:28:42;;;;;;;1.20;1.20;;;;;;;;;;5011328;28;20041;-75
2023/05/17 03:31:11;;;;;;;1.48;1.38;;;;;;;;;;5024734;28;20055;-75
2023/05/17 03:33:39;;;;;;;1.27;1.17;;;;;;;;;;5017933;28;20053;-75
2023/05/17 03:36:07;;;;;;;1.30;1.23;;;;;;;;;;5006385;28;20045;-75
2023/05/17 03:38:36;;;;;;;1.20;1.10;;;;;;;;;;5006894;28;20037;-75
2023/05/17 03:41:04;;;;;;;1.40;1.30;;;;;;;;;;5003061;28;20096;-74
2023/05/17 03:43:34;;;;;;;1.83;1.55;;;;;;;;;;5004150;28;20042;-75
2023/05/17 03:46:03;;;;;;;1.52;1.42;;;;;;;;;;5015995;28;21516;-75
2023/05/17 03:48:31;;;;;;;1.30;1.23;;;;;;;;;;5024214;28;20041;-75
2023/05/17 03:51:03;;;;;;;2.72;1.75;;;;;;;;;;5016383;28;20047;-75
2023/05/17 03:53:40;;;;;;;2.70;1.40;;;;;;;;;;5025538;28;20041;-75
2023/05/17 03:56:08;;;;;;;1.75;1.65;;;;;;;;;;5014415;28;20121;-75
2023/05/17 03:58:37;;;;;;;1.80;1.70;;;;;;;;;;5007485;28;20046;-76
2023/05/17 04:01:06;;;;;;;1.50;1.40;;;;;;;;;;5012933;28;20129;-75
2023/05/17 04:03:36;;;;;;;1.83;1.63;;;;;;;;;;5002651;28;20049;-74
2023/05/17 04:06:06;;;;;;;2.28;1.70;;;;;;;;;;5013041;28;20598;-75
2023/05/17 04:08:36;;;;;;;1.60;1.50;;;;;;;;;;5023332;28;20054;-75
2023/05/17 04:11:14;;;;;;;2.40;2.20;;;;;;;;;;5024384;28;20111;-75
2023/05/17 04:13:43;;;;;;;2.60;2.40;;;;;;;;;;5008569;28;20051;-74
2023/05/17 04:16:12;;;;;;;2.40;2.20;;;;;;;;;;5023386;28;20052;-75
2023/05/17 04:18:42;;;;;;;2.28;2.10;;;;;;;;;;5024309;28;20087;-75
2023/05/17 04:21:11;;;;;;;2.28;1.88;;;;;;;;;;4985683;28;20053;-75
2023/05/17 04:23:40;;;;;;;2.53;1.80;;;;;;;;;;5024015;28;20359;-74
2023/05/17 04:26:09;;;;;;;1.80;1.70;;;;;;;;;;5009374;28;20708;-75
2023/05/17 04:28:40;;;;;;;1.98;1.80;;;;;;;;;;5034328;28;20041;-74
2023/05/17 04:31:09;;;;;;;1.63;1.55;;;;;;;;;;5026751;28;20557;-74
2023/05/17 04:33:38;;;;;;;1.70;1.60;;;;;;;;;;5017266;28;20100;-75
2023/05/17 04:36:07;;;;;;;2.20;1.80;;;;;;;;;;5022407;28;20041;-74
2023/05/17 04:38:38;;;;;;;2.20;1.90;;;;;;;;;;5004233;28;20791;-74
2023/05/17 04:41:08;;;;;;;1.80;1.70;;;;;;;;;;5028892;28;20033;-75
2023/05/17 04:43:38;;;;;;;1.50;1.40;;;;;;;;;;5007744;28;20037;-75
2023/05/17 04:46:13;;;;;;;1.60;1.52;;;;;;;;;;5024782;28;20300;-74
2023/05/17 04:48:42;;;;;;;2.45;1.60;;;;;;;;;;5006816;28;20488;-74
2023/05/17 04:51:10;;;;;;;2.03;1.77;;;;;;;;;;5015886;28;20042;-75
2023/05/17 04:53:39;;;;;;;1.90;1.80;;;;;;;;;;5005271;28;20037;-74
2023/05/17 04:56:13;;;;;;;4.43;2.15;;;;;;;;;;4997247;28;20049;-75
2023/05/17 04:58:41;;;;;;;1.63;1.40;;;;;;;;;;5018533;28;20146;-75
2023/05/17 05:01:10;;;;;;;1.75;1.65;;;;;;;;;;5019679;28;20124;-75
2023/05/17 05:03:39;;;;;;;2.42;2.22;;;;;;;;;;5017844;28;20052;-75
2023/05/17 05:06:10;;;;;;;2.65;2.45;;;;;;;;;;4994135;28;20042;-74
2023/05/17 05:08:38;;;;;;;3.22;2.30;;;;;;;;;;4997284;28;20033;-75
2023/05/17 05:11:10;;;;;;;3.40;2.30;;;;;;;;;;5001349;28;20360;-75
2023/05/17 05:13:42;;;;;;;;;;;;;;;;;;4998439;28;20056;-75
2023/05/17 05:16:10;;;;;;;3.45;2.13;;;;;;;;;;5006906;28;19972;-75
2023/05/17 05:18:38;;;;;;;3.67;1.92;;;;;;;;;;4997565;28;20052;-75
2023/05/17 05:21:08;;;;;;;1.85;1.73;;;;;;;;;;5015952;28;20041;-74
2023/05/17 05:23:37;;;;;;;1.50;1.48;;;;;;;;;;4998654;28;20203;-74
2023/05/17 05:26:06;;;;;;;2.05;1.70;;;;;;;;;;5014881;28;20831;-77
2023/05/17 05:28:34;;;;;;;1.70;1.60;;;;;;;;;;5020960;28;20157;-75
2023/05/17 05:31:03;;;;;;;1.50;1.40;;;;;;;;;;5020576;28;20056;-75
2023/05/17 05:33:42;;;;;;;1.40;1.30;;;;;;;;;;4997871;28;20041;-76
2023/05/17 05:36:17;;;;;;;2.70;1.52;;;;;;;;;;5015520;28;20046;-75
2023/05/17 05:38:46;;;;;;;2.85;1.20;;;;;;;;;;4993715;28;20121;-76
2023/05/17 05:41:15;;;;;;;1.30;1.20;;;;;;;;;;4995098;28;20063;-75
2023/05/17 05:43:45;;;;;;;2.90;1.33;;;;;;;;;;5012040;28;20034;-75
2023/05/17 05:46:22;;;;;;;1.40;1.20;;;;;;;;;;5020180;28;20050;-75
2023/05/17 05:48:51;;;;;;;1.50;1.40;;;;;;;;;;4997901;28;20466;-74
2023/05/17 05:51:19;;;;;;;1.83;1.40;;;;;;;;;;5019892;28;20049;-74
2023/05/17 05:53:51;;;;;;;1.77;1.23;;;;;;;;;;5020034;28;20050;-74
2023/05/17 05:56:24;;;;;;;2.58;1.30;;;;;;;;;;5002770;28;20045;-74
2023/05/17 05:59:22;;;;;;;2.25;1.10;;;;;;;;;;5015458;28;20128;-74
2023/05/17 06:01:51;;;;;;;4.60;1.27;;;;;;;;;;5018145;28;20100;-74
2023/05/17 06:04:19;;;;;;;1.98;1.10;;;;;;;;;;5015061;28;20486;-74
2023/05/17 06:06:56;;;;;;;3.15;1.10;;;;;;;;;;4992660;28;20409;-74
2023/05/17 06:09:25;;;;;;;2.53;1.17;;;;;;;;;;5018732;28;20438;-74
2023/05/17 06:11:54;;;;;;;2.70;1.10;;;;;;;;;;5015434;28;20046;-74
2023/05/17 06:14:23;;;;;;;3.58;3.28;;;;;;;;;;5006260;28;20184;-74
2023/05/17 06:16:51;;;;;;;1.63;1.52;;;;;;;;;;5011856;28;20053;-74
2023/05/17 06:19:20;;;;;;;1.55;1.15;;;;;;;;;;5025764;28;20300;-73
2023/05/17 06:21:48;;;;;;;1.63;1.10;;;;;;;;;;5043341;28;20671;-73
2023/05/17 06:24:17;;;;;;;1.52;1.35;;;;;;;;;;5026909;28;20310;-73
2023/05/17 06:26:48;;;;;;;1.10;1.10;;;;;;;;;;5023093;28;20577;-73
2023/05/17 06:29:16;;;;;;;2.92;1.40;;;;;;;;;;5018288;28;20052;-73
2023/05/17 06:31:45;;;;;;;2.05;0.82;;;;;;;;;;5019155;28;20116;-73
2023/05/17 06:34:14;;;;;;;1.92;0.90;;;;;;;;;;5022324;28;20518;-73
2023/05/17 06:36:42;;;;;;;2.78;1.10;;;;;;;;;;4999939;28;20107;-73
2023/05/17 06:39:11;;;;;;;1.52;0.90;;;;;;;;;;5021518;28;20051;-73
2023/05/17 06:41:40;;;;;;;0.88;0.60;;;;;;;;;;5023950;28;20411;-73
2023/05/17 06:44:18;;;;;;;2.08;0.73;;;;;;;;;;5035449;28;20052;-73
2023/05/17 06:46:46;;;;;;;2.40;0.60;;;;;;;;;;5013064;28;20046;-74
2023/05/17 06:49:15;;;;;;;1.38;0.80;;;;;;;;;;5038928;28;20045;-73
2023/05/17 06:51:43;;;;;;;1.00;0.90;;;;;;;;;;5028555;28;20041;-73
2023/05/17 06:54:10;;;;;;;0.82;0.82;;;;;;;;;;5013618;28;20131;-73
2023/05/17 06:56:38;;;;;;;1.10;0.77;;;;;;;;;;5016813;28;20439;-74
2023/05/17 06:59:06;;;;;;;1.33;0.90;;;;;;;;;;5027018;28;20045;-74
2023/05/17 07:01:34;;;;;;;0.73;0.73;;;;;;;;;;5027608;28;20044;-74
2023/05/17 07:04:05;;;;;;;0.85;0.82;;;;;;;;;;5012447;28;20055;-74
2023/05/17 07:06:33;;;;;;;3.72;1.02;;;;;;;;;;5018629;28;20045;-73
2023/05/17 07:09:00;;;;;;;0.70;0.70;;;;;;;;;;5015591;28;20074;-74
2023/05/17 07:11:28;;;;;;;1.17;0.75;;;;;;;;;;5002576;28;20042;-74
2023/05/17 07:13:55;;;;;;;1.10;0.80;;;;;;;;;;5006686;28;20416;-73
2023/05/17 07:16:22;;;;;;;1.08;0.80;;;;;;;;;;5024396;28;20049;-74
2023/05/17 07:18:54;;;;;;;1.27;0.80;;;;;;;;;;5024773;28;20052;-74
2023/05/17 07:21:28;;;;;;;0.70;0.70;;;;;;;;;;5030217;28;20045;-74
2023/05/17 07:24:03;;;;;;;2.45;0.90;;;;;;;;;;5024052;28;21520;-74
2023/05/17 07:26:38;;;;;;;0.90;0.82;;;;;;;;;;5023635;28;20050;-74
2023/05/17 07:29:14;;;;;;;0.68;0.68;;;;;;;;;;5022113;28;20037;-74
2023/05/17 07:31:42;;;;;;;1.00;0.80;;;;;;;;;;5011447;28;20048;-74
2023/05/17 07:34:10;;;;;;;0.90;0.90;;;;;;;;;;5014405;28;20049;-74
2023/05/17 07:36:38;;;;;;;0.80;0.80;;;;;;;;;;5019961;28;20045;-73
2023/05/17 07:39:05;;;;;;;0.70;0.70;;;;;;;;;;5013466;28;20359;-74
2023/05/17 07:41:33;;;;;;;1.85;1.00;;;;;;;;;;5011023;28;20148;-74
2023/05/17 07:44:00;;;;;;;0.80;0.80;;;;;;;;;;5010400;28;20069;-73
2023/05/17 07:46:28;;;;;;;0.88;0.88;;;;;;;;;;5020298;28;20534;-75
2023/05/17 07:48:55;;;;;;;3.30;1.00;;;;;;;;;;5017475;28;20052;-74
2023/05/17 07:51:25;;;;;;;2.53;1.00;;;;;;;;;;5022476;28;20168;-75
2023/05/17 07:53:52;;;;;;;1.00;1.00;;;;;;;;;;5018623;28;20691;-75
2023/05/17 07:56:20;;;;;;;2.15;1.10;;;;;;;;;;5030360;28;20045;-75
2023/05/17 07:58:49;;;;;;;0.80;0.80;;;;;;;;;;5039841;28;20110;-74
2023/05/17 08:01:18;;;;;;;2.42;1.00;;;;;;;;;;5029159;28;20479;-74
2023/05/17 08:03:49;;;;;;;;;;;;;;;;;;5022763;28;20054;-75
2023/05/17 08:06:17;;;;;;;0.70;0.70;;;;;;;;;;5030332;28;20054;-75
2023/05/17 08:08:44;;;;;;;1.30;1.23;;;;;;;;;;5022324;28;20097;-74
2023/05/17 08:11:13;;;;;;;1.88;1.10;;;;;;;;;;5026053;28;20056;-73
2023/05/17 08:13:40;;;;;;;1.42;1.08;;;;;;;;;;5043046;23;20060;-85
2023/05/17 08:16:11;;;;;;;1.05;0.90;;;;;;;;;;5003138;28;20106;-86
2023/05/17 08:18:41;;;;;;;2.08;0.90;;;;;;;;;;5012230;28;20460;-86
2023/05/17 08:21:10;;;;;;;1.25;1.15;;;;;;;;;;5009210;28;20065;-88
2023/05/17 08:23:37;;;;;;;1.95;1.35;;;;;;;;;;4998474;28;20117;-87
2023/05/17 08:26:05;;;;;;;1.75;1.00;;;;;;;;;;5008266;28;20491;-84
2023/05/17 08:28:33;;;;;;;1.20;1.08;;;;;;;;;;5004240;28;20042;-82
2023/05/17 08:31:00;;;;;;;1.60;1.13;;;;;;;;;;5009386;28;20479;-85
2023/05/17 08:33:28;;;;;;;1.10;1.10;;;;;;;;;;5008295;28;20048;-83
2023/05/17 08:35:58;;;;;;;1.00;1.00;;;;;;;;;;5005359;28;20062;-85
2023/05/17 08:38:25;;;;;;;2.67;1.00;;;;;;;;;;5000676;28;20058;-85
2023/05/17 08:40:57;;;;;;;3.25;1.10;;;;;;;;;;5008620;28;20101;-86
2023/05/17 08:43:25;;;;;;;;;;;;;;;;;;5005453;28;20134;-87
2023/05/17 08:45:56;;;;;;;2.35;1.27;;;;;;;;;;5012067;28;20367;-87
2023/05/17 08:48:29;;;;;;;3.17;1.70;;;;;;;;;;5016150;28;20045;-86
2023/05/17 08:50:58;;;;;;;1.65;1.27;;;;;;;;;;5017500;28;20065;-86
2023/05/17 08:53:26;;;;;;;1.20;1.10;;;;;;;;;;4983841;28;20558;-85
2023/05/17 08:55:59;;;;;;;2.13;1.17;;;;;;;;;;5015352;28;20168;-89
2023/05/17 08:58:31;;;;;;;2.08;1.27;;;;;;;;;;5014061;28;20530;-84
2023/05/17 09:01:08;;;;;;;1.60;1.30;;;;;;;;;;5015499;28;20048;-85
2023/05/17 09:03:39;;;;;;;1.05;0.95;;;;;;;;;;5016995;28;20045;-82
2023/05/17 09:06:08;;;;;;;1.88;1.30;;;;;;;;;;5016753;28;20052;-82
2023/05/17 09:08:37;;;;;;;2.35;1.30;;;;;;;;;;5022358;28;20046;-86
2023/05/17 09:11:04;;;;;;;1.95;1.20;;;;;;;;;;5018043;28;20038;-83
2023/05/17 09:13:31;;;;;;;7.40;1.20;;;;;;;;;;4995028;28;20072;-83
2023/05/17 09:15:59;;;;;;;1.27;0.95;;;;;;;;;;5017676;28;20069;-85
2023/05/17 09:18:33;;;;;;;1.85;0.90;;;;;;;;;;5020850;28;20105;-85
2023/05/17 09:21:03;;;;;;;0.90;0.90;;;;;;;;;;5025383;28;20033;-84
2023/05/17 09:23:34;;;;;;;3.13;1.20;;;;;;;;;;5025048;28;20054;-85
2023/05/17 09:26:06;;;;;;;1.33;1.23;;;;;;;;;;5026571;28;20057;-84
2023/05/17 09:28:43;;;;;;;3.13;1.00;;;;;;;;;;5031026;28;20076;-86
2023/05/17 09:31:12;;;;;;;0.90;0.90;;;;;;;;;;5035219;28;20117;-81
2023/05/17 09:33:46;;;;;;;1.50;1.20;;;;;;;;;;5033993;28;20026;-81
2023/05/17 09:36:20;;;;;;;0.80;0.80;;;;;;;;;;5032428;28;20042;-85
2023/05/17 09:38:55;;;;;;;1.23;1.02;;;;;;;;;;5030530;28;20050;-82
2023/05/17 09:41:25;;;;;;;2.15;1.33;;;;;;;;;;5024974;28;20050;-87
2023/05/17 09:43:53;;;;;;;2.22;1.40;;;;;;;;;;5023538;28;20108;-86
2023/05/17 09:46:22;;;;;;;1.83;1.42;;;;;;;;;;5024839;28;20141;-87
2023/05/17 09:48:54;;;;;;;1.00;0.90;;;;;;;;;;5026873;28;20064;-83
2023/05/17 09:51:51;;;;;;;1.65;0.93;;;;;;;;;;5027683;28;20054;-83
2023/05/17 09:54:18;;;;;;;1.27;1.00;;;;;;;;;;5021706;28;20617;-82
2023/05/17 09:56:52;;;;;;;4.53;0.85;;;;;;;;;;5034418;28;20050;-83
2023/05/17 09:59:20;;;;;;;4.40;1.48;;;;;;;;;;5026460;28;20054;-86
2023/05/17 10:01:49;;;;;;;1.33;1.10;;;;;;;;;;5024844;28;20345;-86
2023/05/17 10:04:23;;;;;;;1.13;1.00;;;;;;;;;;5015507;28;20058;-86
2023/05/17 10:07:20;;;;;;;1.83;1.40;;;;;;;;;;5037599;28;20088;-82
2023/05/17 10:09:57;;;;;;;1.20;1.10;;;;;;;;;;5027576;28;20061;-84
2023/05/17 10:12:33;;;;;;;1.10;1.10;;;;;;;;;;5013256;28;20660;-86
2023/05/17 10:15:04;;;;;;;0.85;0.82;;;;;;;;;;5029693;28;20065;-83
2023/05/17 10:17:47;;;;;;;1.15;1.10;;;;;;;;;;5033580;28;20038;-84
2023/05/17 10:20:29;;;;;;;1.23;0.90;;;;;;;;;;5028842;28;20107;-87
2023/05/17 10:22:56;;;;;;;0.80;0.80;;;;;;;;;;5029616;28;20084;-84
2023/05/17 10:25:25;;;;;;;1.75;1.23;;;;;;;;;;5021922;28;20030;-84
2023/05/17 10:27:53;;;;;;;1.15;1.05;;;;;;;;;;5025288;28;20046;-86
2023/05/17 10:30:38;;;;;;;1.20;1.10;;;;;;;;;;5018511;28;20045;-84
2023/05/17 10:33:06;;;;;;;0.90;0.90;;;;;;;;;;5031369;28;20045;-83
2023/05/17 10:35:37;;;;;;;1.17;1.08;;;;;;;;;;5031701;28;20042;-83
2023/05/17 10:38:12;;;;;;;1.50;1.08;;;;;;;;;;5039647;28;20341;-84
2023/05/17 10:44:30;;;;;;;1.40;1.30;;;;;;;;;;5017437;28;20048;-83
2023/05/17 10:47:10;;;;;;;1.42;1.20;;;;;;;;;;5028840;28;20034;-83
2023/05/17 10:50:13;;;;;;;1.45;1.00;;;;;;;;;;5028673;28;20207;-83
2023/05/17 10:52:56;;;;;;;1.50;0.97;;;;;;;;;;4931293;28;20108;-84
2023/05/17 10:55:34;;;;;;;2.38;1.20;;;;;;;;;;5017654;28;20297;-84
2023/05/17 10:58:32;;;;;;;2.03;1.10;;;;;;;;;;5016273;28;20068;-83
2023/05/17 11:01:03;;;;;;;0.90;0.90;;;;;;;;;;5020579;28;20053;-83
2023/05/17 11:03:43;;;;;;;3.03;1.33;;;;;;;;;;5006999;28;20046;-85
2023/05/17 11:06:17;;;;;;;1.77;1.08;;;;;;;;;;5023158;28;20084;-84
2023/05/17 11:09:10;;;;;;;1.33;1.17;;;;;;;;;;5017211;28;20045;-82
2023/05/17 11:11:57;;;;;;;2.22;1.08;;;;;;;;;;5022488;28;20782;-85
2023/05/17 11:14:25;;;;;;;1.00;0.90;;;;;;;;;;5017280;28;20050;-85
2023/05/17 11:21:07;;;;;;;2.72;1.00;;;;;;;;;;5017096;28;20112;-83
2023/05/17 11:23:39;;;;;;;2.28;1.33;;;;;;;;;;5011694;28;20677;-85
2023/05/17 11:26:50;;;;;;;2.03;1.20;;;;;;;;;;5022541;28;20065;-82
2023/05/17 11:29:17;;;;;;;3.58;1.38;;;;;;;;;;5038601;28;20063;-83
2023/05/17 11:31:52;;;;;;;1.83;1.00;;;;;;;;;;5021299;28;20054;-82
2023/05/17 11:34:19;;;;;;;1.38;1.05;;;;;;;;;;5012223;28;20038;-83
2023/05/17 11:36:50;;;;;;;3.03;1.20;;;;;;;;;;5016385;28;20153;-84
2023/05/17 11:39:21;;;;;;;0.90;0.73;;;;;;;;;;5024432;28;20026;-85
2023/05/17 11:41:52;;;;;;;1.00;0.90;;;;;;;;;;5012608;28;20039;-83
2023/05/17 11:44:33;;;;;;;1.75;1.13;;;;;;;;;;5003326;28;20057;-82
2023/05/17 11:47:02;;;;;;;1.27;1.10;;;;;;;;;;5006770;28;20402;-86
2023/05/17 11:49:31;;;;;;;1.08;0.88;;;;;;;;;;5003615;28;20045;-85
2023/05/17 11:52:03;;;;;;;1.17;0.90;;;;;;;;;;4996743;28;20048;-86
2023/05/17 11:54:35;;;;;;;1.55;0.90;;;;;;;;;;4993537;28;20062;-85
2023/05/17 11:57:30;;;;;;;1.35;1.25;;;;;;;;;;5000669;28;20042;-86
2023/05/17 12:00:03;;;;;;;2.67;1.00;;;;;;;;;;5007485;28;20073;-86
2023/05/17 12:02:40;;;;;;;1.67;1.10;;;;;;;;;;5003892;28;20053;-87
2023/05/17 12:05:11;;;;;;;2.35;1.20;;;;;;;;;;5008554;28;20042;-86
2023/05/17 12:07:43;;;;;;;2.15;1.10;;;;;;;;;;4986995;28;20042;-87
2023/05/17 12:10:13;;;;;;;2.00;1.38;;;;;;;;;;4993402;28;20050;-88
2023/05/17 12:12:41;;;;;;;1.25;1.05;;;;;;;;;;4990855;28;20112;-85
2023/05/17 12:15:10;;;;;;;2.05;1.10;;;;;;;;;;5010546;28;20042;-88
2023/05/17 12:17:44;;;;;;;2.55;1.20;;;;;;;;;;4993348;28;20088;-87
2023/05/17 12:20:24;;;;;;;1.20;1.10;;;;;;;;;;5028735;23;20049;-87
2023/05/17 12:23:14;;;;;;;1.25;1.10;;;;;;;;;;5025190;28;20538;-87
2023/05/17 12:26:20;;;;;;;2.25;1.60;;;;;;;;;;5037084;28;20148;-88
2023/05/17 12:28:56;;;;;;;3.00;1.08;;;;;;;;;;5028112;28;20057;-85
2023/05/17 12:31:29;;;;;;;1.52;1.30;;;;;;;;;;5011659;28;20077;-86
2023/05/17 12:34:06;;;;;;;2.88;1.40;;;;;;;;;;5014402;28;20042;-87
2023/05/17 12:37:09;;;;;;;6.38;4.20;;;;;;;;;;5003773;28;20057;-84
2023/05/17 12:39:37;;;;;;;1.60;1.50;;;;;;;;;;4999646;28;20094;-88
2023/05/17 12:42:05;;;;;;;2.17;1.50;;;;;;;;;;4991632;28;20050;-90
2023/05/17 12:44:35;;;;;;;1.20;1.13;;;;;;;;;;5014090;28;20046;-88
2023/05/17 12:47:02;;;;;;;1.67;1.30;;;;;;;;;;5009178;28;20092;-85
2023/05/17 12:49:44;;;;;;;1.50;1.40;;;;;;;;;;5014923;28;20045;-85
2023/05/17 12:52:38;;;;;;;1.10;1.10;;;;;;;;;;5017360;28;20057;-89
2023/05/17 12:55:12;;;;;;;1.10;1.00;;;;;;;;;;4991303;28;20046;-88
2023/05/17 12:57:47;;;;;;;1.25;0.80;;;;;;;;;;5007696;28;20053;-86
2023/05/17 13:00:16;;;;;;;1.60;1.10;;;;;;;;;;4993500;28;20054;-88
2023/05/17 13:02:46;;;;;;;0.93;0.85;;;;;;;;;;5005697;28;20061;-89
2023/05/17 13:05:22;;;;;;;1.38;1.27;;;;;;;;;;4997968;28;20053;-88
2023/05/17 13:11:10;;;;;;;1.75;1.50;;;;;;;;;;4996270;28;20057;-86
2023/05/17 13:13:38;;;;;;;2.92;1.60;;;;;;;;;;5007534;28;20109;-87
2023/05/17 13:16:06;;;;;;;2.00;1.40;;;;;;;;;;5011788;28;20538;-89
2023/05/17 13:18:50;;;;;;;2.85;1.33;;;;;;;;;;4987286;28;20049;-86
2023/05/17 13:21:19;;;;;;;2.17;1.10;;;;;;;;;;4988568;28;20050;-88
2023/05/17 13:24:19;;;;;;;1.38;1.27;;;;;;;;;;5026981;28;20274;-88
2023/05/17 13:32:55;;;;;;;1.23;1.10;;;;;;;;;;4914974;29;20040;-89
2023/05/17 13:35:53;;;;;;;1.42;1.30;;;;;;;;;;4873849;29;20040;-88
2023/05/17 13:39:07;;;;;;;2.13;1.40;;;;;;;;;;4872237;29;20049;-89
2023/05/17 13:41:40;;;;;;;1.05;1.00;;;;;;;;;;4878743;29;20056;-88
2023/05/17 13:44:08;;;;;;;1.02;0.90;;;;;;;;;;4875092;29;20053;-87
2023/05/17 13:46:36;;;;;;;3.15;1.42;;;;;;;;;;4875092;29;20132;-88
2023/05/17 13:49:11;;;;;;;1.40;1.30;;;;;;;;;;4883432;29;20044;-90
2023/05/17 13:51:48;;;;;;;1.52;1.40;;;;;;;;;;4873634;29;20514;-87
2023/05/17 13:54:16;;;;;;;1.90;1.42;;;;;;;;;;4893216;29;20068;-87
2023/05/17 13:56:44;;;;;;;2.50;1.65;;;;;;;;;;4938968;28;20430;-88
2023/05/17 13:59:11;;;;;;;2.63;1.45;;;;;;;;;;4972159;28;20028;-86
2023/05/17 14:01:40;;;;;;;1.42;1.10;;;;;;;;;;4972127;28;20059;-86
2023/05/17 14:04:37;;;;;;;2.50;1.50;;;;;;;;;;4953553;28;20031;-88
2023/05/17 14:07:05;;;;;;;1.63;1.08;;;;;;;;;;5047638;28;20069;-87
2023/05/17 14:09:35;;;;;;;1.40;1.00;;;;;;;;;;5044812;28;20060;-90
2023/05/17 14:12:04;;;;;;;1.10;1.10;;;;;;;;;;5029671;28;20069;-86
2023/05/17 14:14:31;;;;;;;1.20;1.10;;;;;;;;;;5022334;28;20062;-88
2023/05/17 14:17:06;;;;;;;1.60;1.10;;;;;;;;;;5004682;28;20046;-90
2023/05/17 14:19:36;;;;;;;2.35;1.15;;;;;;;;;;5021952;28;20511;-88
2023/05/17 14:22:19;;;;;;;1.58;1.20;;;;;;;;;;5028818;28;20085;-89
2023/05/17 14:27:48;;;;;;;1.30;1.10;;;;;;;;;;5030856;28;20049;-87
2023/05/17 14:30:18;;;;;;;0.90;0.90;;;;;;;;;;5028648;28;20077;-88
2023/05/17 14:32:52;;;;;;;2.05;1.15;;;;;;;;;;5011018;28;20077;-87
2023/05/17 14:35:29;;;;;;;1.33;1.10;;;;;;;;;;5016219;28;20061;-88
2023/05/17 14:38:00;;;;;;;1.23;1.13;;;;;;;;;;5017122;28;20038;-89
2023/05/17 14:40:33;;;;;;;1.30;1.17;;;;;;;;;;5002020;28;20076;-88
2023/05/17 14:43:35;;;;;;;1.88;1.23;;;;;;;;;;5016762;28;20119;-88
2023/05/17 14:46:33;;;;;;;1.10;1.00;;;;;;;;;;5015886;28;20204;-86
2023/05/17 14:49:00;;;;;;;6.20;1.45;;;;;;;;;;5015119;28;20452;-90
2023/05/17 14:51:33;;;;;;;1.90;1.70;;;;;;;;;;5018224;28;20384;-89
2023/05/17 14:54:08;;;;;;;1.55;1.20;;;;;;;;;;5003225;28;20046;-88
2023/05/17 14:56:53;;;;;;;6.75;3.38;;;;;;;;;;4989767;28;20104;-89
2023/05/17 14:59:24;;;;;;;4.30;1.88;;;;;;;;;;5019430;28;20046;-87
2023/05/17 15:01:54;;;;;;;2.13;1.75;;;;;;;;;;5021350;28;20490;-87
2023/05/17 15:04:24;;;;;;;2.55;2.28;;;;;;;;;;5026738;28;20048;-90
2023/05/17 15:06:58;;;;;;;1.50;1.40;;;;;;;;;;5028350;28;20071;-88
2023/05/17 15:09:45;;;;;;;1.50;1.40;;;;;;;;;;5011563;28;20096;-89
2023/05/17 15:12:21;;;;;;;1.90;1.10;;;;;;;;;;5024661;28;20049;-87
2023/05/17 15:14:50;;;;;;;4.30;3.90;;;;;;;;;;5019968;28;20133;-89
2023/05/17 15:17:17;;;;;;;2.67;1.88;;;;;;;;;;5015247;28;20063;-87
2023/05/17 15:19:45;;;;;;;2.63;1.60;;;;;;;;;;5015214;28;20238;-89
2023/05/17 15:22:21;;;;;;;1.60;1.50;;;;;;;;;;5013890;28;20060;-87
2023/05/17 15:24:54;;;;;;;3.35;1.92;;;;;;;;;;5016165;28;20306;-87
2023/05/17 15:27:24;;;;;;;1.98;1.38;;;;;;;;;;5017896;28;20692;-89
2023/05/17 15:30:22;;;;;;;3.45;1.90;;;;;;;;;;5015525;28;20050;-90
2023/05/17 15:33:10;;;;;;;3.47;1.30;;;;;;;;;;4991805;28;20128;-91